Time;durP1;ratioP1;P1;durP2;ratioP2;P2;SDS_P1;SDS_P2;PMS_P1;PMS_P2;Temp;Humidity;BMP_temperature;BMP_pressure;BME280_temperature;BME280_humidity;BME280_pressure;Samples;Min_cycle;Max_cycle;Signal;HPM_P1;HPM_P2
2022/04/04 00:01:50;;;;;;;8.38;7.57;;;-2.50;99.90;;;;;;4994125;28;20494;-75
2022/04/04 00:04:15;;;;;;;9.52;8.63;;;-2.60;99.90;;;;;;5011801;28;20430;-74
2022/04/04 00:06:41;;;;;;;9.25;8.13;;;-2.50;99.90;;;;;;5011961;28;20018;-74
2022/04/04 00:09:06;;;;;;;8.02;7.07;;;-2.30;99.90;;;;;;5011835;28;20073;-76
2022/04/04 00:11:32;;;;;;;10.57;7.93;;;-2.40;99.90;;;;;;4994015;28;20383;-78
2022/04/04 00:13:57;;;;;;;10.07;7.50;;;-2.30;99.90;;;;;;4998857;28;20022;-77
2022/04/04 00:16:23;;;;;;;8.50;6.90;;;-2.20;99.90;;;;;;4995736;28;20038;-76
2022/04/04 00:18:49;;;;;;;9.73;7.75;;;-2.30;99.90;;;;;;5013967;28;20065;-78
2022/04/04 00:21:15;;;;;;;8.18;6.78;;;-2.20;99.90;;;;;;5025783;28;20104;-78
2022/04/04 00:23:40;;;;;;;7.97;7.10;;;-2.30;99.90;;;;;;5017124;28;20048;-78
2022/04/04 00:26:06;;;;;;;8.30;6.65;;;-2.30;99.90;;;;;;5007804;28;20025;-77
2022/04/04 00:28:32;;;;;;;6.65;6.05;;;-2.50;99.90;;;;;;4999833;28;20048;-78
2022/04/04 00:30:58;;;;;;;9.23;7.43;;;-2.40;99.90;;;;;;5000305;28;20025;-78
2022/04/04 00:33:23;;;;;;;7.28;6.55;;;-2.30;99.90;;;;;;4997561;28;20552;-77
2022/04/04 00:35:49;;;;;;;7.93;6.00;;;-2.40;99.90;;;;;;4994064;28;20022;-74
2022/04/04 00:38:14;;;;;;;9.30;7.00;;;-2.40;99.90;;;;;;4993900;28;20032;-73
2022/04/04 00:40:41;;;;;;;9.23;6.95;;;-2.50;99.90;;;;;;4993693;28;20033;-72
2022/04/04 00:43:07;;;;;;;7.15;6.43;;;-2.60;99.90;;;;;;5011434;28;20045;-73
2022/04/04 00:45:32;;;;;;;9.80;7.15;;;-2.60;99.90;;;;;;4993928;28;20026;-72
2022/04/04 00:47:58;;;;;;;6.72;6.05;;;-2.60;99.90;;;;;;5011470;28;20029;-72
2022/04/04 00:50:23;;;;;;;7.43;6.63;;;-2.50;99.90;;;;;;5011170;28;20025;-75
2022/04/04 00:52:50;;;;;;;8.32;6.50;;;-2.40;99.90;;;;;;5014841;28;20045;-75
2022/04/04 00:55:15;;;;;;;8.23;6.25;;;-2.40;99.90;;;;;;4997665;28;20040;-75
2022/04/04 00:57:41;;;;;;;7.47;6.57;;;-2.70;99.90;;;;;;5015047;28;20531;-75
2022/04/04 01:00:11;;;;;;;8.88;6.93;;;-2.60;99.90;;;;;;5015204;28;20061;-75
2022/04/04 01:02:38;;;;;;;8.10;7.30;;;-2.50;99.90;;;;;;4997234;28;20038;-74
2022/04/04 01:05:05;;;;;;;10.43;7.18;;;-2.60;99.90;;;;;;5015063;28;20037;-74
2022/04/04 01:07:31;;;;;;;8.82;7.30;;;-2.40;99.90;;;;;;5014979;28;20046;-75
2022/04/04 01:09:57;;;;;;;8.23;7.18;;;-2.50;99.90;;;;;;5014952;28;20369;-75
2022/04/04 01:12:22;;;;;;;8.10;6.68;;;-2.50;99.90;;;;;;5014639;28;20314;-76
2022/04/04 01:14:48;;;;;;;9.68;7.38;;;-2.50;99.90;;;;;;4997331;28;20026;-76
2022/04/04 01:17:16;;;;;;;7.85;7.03;;;-2.40;99.90;;;;;;5034262;28;20025;-76
2022/04/04 01:19:41;;;;;;;10.60;7.30;;;-2.50;99.90;;;;;;5016870;28;20021;-76
2022/04/04 01:22:11;;;;;;;7.97;6.75;;;-2.40;99.90;;;;;;5016522;28;20092;-75
2022/04/04 01:24:38;;;;;;;9.43;7.05;;;-2.50;99.90;;;;;;5034349;28;20021;-76
2022/04/04 01:27:05;;;;;;;8.02;6.45;;;-2.20;99.90;;;;;;5015096;28;20022;-76
2022/04/04 01:29:31;;;;;;;7.07;6.38;;;-2.10;99.90;;;;;;5013238;28;20025;-75
2022/04/04 01:31:57;;;;;;;7.63;6.53;;;-2.00;99.90;;;;;;5034903;28;20025;-75
2022/04/04 01:34:23;;;;;;;9.52;6.90;;;-2.00;99.90;;;;;;5024478;28;20475;-76
2022/04/04 01:36:49;;;;;;;7.43;6.20;;;-2.10;99.90;;;;;;5018422;28;20026;-77
2022/04/04 01:39:15;;;;;;;8.20;6.25;;;-2.00;99.90;;;;;;5027352;28;20054;-76
2022/04/04 01:41:42;;;;;;;7.05;6.30;;;-2.00;99.90;;;;;;4996347;28;20491;-76
2022/04/04 01:44:07;;;;;;;7.90;6.22;;;-1.90;99.90;;;;;;4996757;28;20030;-76
2022/04/04 01:46:33;;;;;;;8.73;7.25;;;-1.90;99.90;;;;;;4996816;28;20028;-76
2022/04/04 01:49:02;;;;;;;6.80;6.10;;;-1.80;99.90;;;;;;5014400;28;20431;-75
2022/04/04 01:51:29;;;;;;;7.85;6.35;;;-1.90;99.90;;;;;;4998997;28;20101;-77
2022/04/04 01:53:55;;;;;;;7.80;6.50;;;-1.90;99.90;;;;;;5022535;28;20077;-77
2022/04/04 01:56:21;;;;;;;8.55;6.10;;;-1.90;99.90;;;;;;5015773;28;20030;-77
2022/04/04 01:58:47;;;;;;;7.68;6.88;;;-1.80;99.90;;;;;;5017242;28;20483;-77
2022/04/04 02:01:18;;;;;;;8.88;6.80;;;-1.80;99.90;;;;;;5017561;28;20053;-76
2022/04/04 02:03:46;;;;;;;9.57;7.35;;;-1.80;99.90;;;;;;5015693;28;20049;-77
2022/04/04 02:06:13;;;;;;;9.73;7.18;;;-1.90;99.90;;;;;;5014241;28;20021;-77
2022/04/04 02:08:39;;;;;;;7.03;6.32;;;-1.90;99.90;;;;;;4996838;28;20415;-77
2022/04/04 02:11:05;;;;;;;6.63;5.97;;;-2.10;99.90;;;;;;5013932;28;20026;-76
2022/04/04 02:13:31;;;;;;;7.20;5.80;;;-2.20;99.90;;;;;;5014185;28;20026;-77
2022/04/04 02:16:01;;;;;;;8.80;6.43;;;-2.20;99.90;;;;;;4996621;28;20026;-77
2022/04/04 02:18:28;;;;;;;9.95;7.05;;;-2.40;99.90;;;;;;5014032;28;20387;-77
2022/04/04 02:20:54;;;;;;;6.88;6.18;;;-2.30;99.90;;;;;;5022303;28;20075;-76
2022/04/04 02:23:20;;;;;;;9.55;6.43;;;-2.10;99.90;;;;;;5033397;28;20550;-76
2022/04/04 02:25:46;;;;;;;7.93;7.00;;;-2.00;99.90;;;;;;5033236;28;20113;-75
2022/04/04 02:28:13;;;;;;;12.18;8.20;;;-2.00;99.90;;;;;;5033323;28;20018;-76
2022/04/04 02:30:39;;;;;;;7.63;6.82;;;-2.00;99.90;;;;;;5015221;28;20022;-75
2022/04/04 02:33:05;;;;;;;7.15;6.30;;;-2.00;99.90;;;;;;5002227;28;20483;-75
2022/04/04 02:35:30;;;;;;;16.27;13.23;;;-2.00;99.90;;;;;;5013255;28;20030;-74
2022/04/04 02:37:56;;;;;;;12.43;9.82;;;-2.10;99.90;;;;;;5013495;28;20022;-77
2022/04/04 02:40:22;;;;;;;10.45;8.32;;;-2.20;99.90;;;;;;4995869;28;20026;-78
2022/04/04 02:42:48;;;;;;;16.13;11.55;;;-2.10;99.90;;;;;;4997416;28;20083;-77
2022/04/04 02:45:14;;;;;;;14.88;10.63;;;-2.10;99.90;;;;;;5013728;28;20030;-77
2022/04/04 02:47:41;;;;;;;12.00;9.70;;;-2.20;99.90;;;;;;4995588;28;20026;-77
2022/04/04 02:50:08;;;;;;;9.75;8.75;;;-2.10;99.90;;;;;;5014471;28;20030;-78
2022/04/04 02:52:33;;;;;;;11.88;8.98;;;-2.00;99.90;;;;;;4997263;28;20053;-75
2022/04/04 02:56:28;;;;;;;13.95;9.10;;;-2.00;99.90;;;;;;5029623;28;20115;-75
2022/04/04 02:57:44;;;;;;;9.38;8.32;;;-2.20;99.90;;;;;;5027243;28;20175;-77
2022/04/04 03:00:10;;;;;;;7.72;6.93;;;-2.20;99.90;;;;;;5013892;28;20120;-76
2022/04/04 03:02:36;;;;;;;7.85;7.05;;;-2.10;99.90;;;;;;5004847;28;20142;-76
2022/04/04 03:05:02;;;;;;;9.77;7.95;;;-2.00;99.90;;;;;;5030353;28;20523;-75
2022/04/04 03:07:27;;;;;;;9.35;7.60;;;-2.00;99.90;;;;;;5009358;28;20113;-75
2022/04/04 03:09:53;;;;;;;11.98;9.15;;;-1.90;99.90;;;;;;5021037;28;20484;-75
2022/04/04 03:12:18;;;;;;;8.13;7.10;;;-2.00;99.90;;;;;;5030862;28;20045;-76
2022/04/04 03:14:44;;;;;;;9.55;7.85;;;-2.00;99.90;;;;;;5009773;28;20045;-75
2022/04/04 03:17:10;;;;;;;8.30;7.30;;;-2.10;99.90;;;;;;5022265;28;20033;-75
2022/04/04 03:19:36;;;;;;;8.52;6.90;;;-2.10;99.90;;;;;;5026908;28;20029;-75
2022/04/04 03:22:01;;;;;;;8.52;7.00;;;-2.00;99.90;;;;;;5010603;28;20439;-75
2022/04/04 03:24:27;;;;;;;9.95;7.60;;;-2.00;99.90;;;;;;5015557;28;20104;-77
2022/04/04 03:26:52;;;;;;;8.77;7.22;;;-2.00;99.90;;;;;;5013646;28;20384;-78
2022/04/04 03:29:18;;;;;;;10.45;7.25;;;-2.10;99.90;;;;;;5010487;28;20013;-78
2022/04/04 03:31:43;;;;;;;7.97;7.10;;;-2.20;99.90;;;;;;5034432;28;20075;-77
2022/04/04 03:34:09;;;;;;;7.90;7.10;;;-2.40;99.90;;;;;;5033515;28;20031;-77
2022/04/04 03:36:34;;;;;;;10.50;8.07;;;-2.40;99.90;;;;;;5007092;28;20037;-74
2022/04/04 03:39:00;;;;;;;9.45;8.10;;;-2.20;99.90;;;;;;5010392;28;20036;-74
2022/04/04 03:41:25;;;;;;;9.57;8.57;;;-2.20;99.90;;;;;;5022659;28;20105;-76
2022/04/04 03:43:51;;;;;;;8.52;7.63;;;-2.20;99.90;;;;;;5010504;28;20049;-76
2022/04/04 03:46:17;;;;;;;8.70;7.72;;;-2.20;99.90;;;;;;5029132;28;20573;-76
2022/04/04 03:48:42;;;;;;;9.13;7.55;;;-2.10;99.90;;;;;;5031748;28;20020;-73
2022/04/04 03:51:09;;;;;;;8.98;8.00;;;-2.00;99.90;;;;;;5024676;28;20387;-73
2022/04/04 03:53:35;;;;;;;11.38;8.77;;;-2.20;99.90;;;;;;5013951;28;20028;-74
2022/04/04 03:56:01;;;;;;;8.75;7.57;;;-2.20;99.90;;;;;;5023899;28;20025;-74
2022/04/04 03:58:27;;;;;;;9.57;8.57;;;-2.20;99.90;;;;;;5025902;28;20040;-76
2022/04/04 04:00:53;;;;;;;10.52;8.25;;;-2.40;99.90;;;;;;5027514;28;20088;-75
2022/04/04 04:03:18;;;;;;;9.30;8.40;;;-2.50;99.90;;;;;;5031593;28;20035;-76
2022/04/04 04:05:45;;;;;;;9.30;8.30;;;-2.40;99.90;;;;;;5013574;28;20030;-75
2022/04/04 04:08:10;;;;;;;10.93;7.90;;;-2.20;99.90;;;;;;5012019;28;20030;-77
2022/04/04 04:10:36;;;;;;;9.30;8.40;;;-2.20;99.90;;;;;;4994191;28;20018;-76
2022/04/04 04:13:05;;;;;;;9.50;8.50;;;-2.30;99.90;;;;;;5012177;28;20022;-76
2022/04/04 04:15:31;;;;;;;9.98;8.55;;;-2.20;99.90;;;;;;5013088;28;20022;-76
2022/04/04 04:17:56;;;;;;;9.57;8.48;;;-2.10;99.90;;;;;;4994242;28;20026;-73
2022/04/04 04:20:31;;;;;;;9.55;7.38;;;-2.10;99.90;;;;;;5011416;28;20084;-74
2022/04/04 04:23:07;;;;;;;9.32;8.32;;;-2.10;99.90;;;;;;5011834;28;20018;-75
2022/04/04 04:25:35;;;;;;;9.82;8.82;;;-2.10;99.90;;;;;;5001150;28;20048;-76
2022/04/04 04:28:02;;;;;;;12.02;10.25;;;-2.10;99.90;;;;;;5017646;28;20037;-75
2022/04/04 04:30:29;;;;;;;11.45;9.90;;;-2.10;99.90;;;;;;5017567;28;20739;-74
2022/04/04 04:32:54;;;;;;;11.88;10.25;;;-2.10;99.90;;;;;;5020990;28;20029;-74
2022/04/04 04:35:21;;;;;;;10.85;9.40;;;-2.10;99.90;;;;;;4998247;28;20030;-74
2022/04/04 04:37:47;;;;;;;11.18;9.55;;;-2.10;99.90;;;;;;5015429;28;20030;-75
2022/04/04 04:40:13;;;;;;;12.32;10.02;;;-2.10;99.90;;;;;;5015426;28;20036;-74
2022/04/04 04:42:38;;;;;;;10.48;9.38;;;-2.10;99.90;;;;;;5015326;28;20037;-76
2022/04/04 04:45:05;;;;;;;13.02;9.73;;;-2.10;99.90;;;;;;5023138;28;20025;-75
2022/04/04 04:47:32;;;;;;;11.10;10.00;;;-2.10;99.90;;;;;;5017480;28;20028;-74
2022/04/04 04:49:58;;;;;;;15.45;10.00;;;-2.10;99.90;;;;;;5035314;28;20018;-76
2022/04/04 04:52:24;;;;;;;11.75;10.55;;;-2.00;99.90;;;;;;5020580;28;20391;-75
2022/04/04 04:54:50;;;;;;;11.68;10.48;;;-1.90;99.90;;;;;;5025304;28;20427;-75
2022/04/04 04:57:16;;;;;;;11.27;9.98;;;-1.90;99.90;;;;;;5040213;28;20136;-76
2022/04/04 04:59:42;;;;;;;12.23;10.52;;;-2.00;99.90;;;;;;5036063;28;20026;-76
2022/04/04 05:02:07;;;;;;;13.95;10.75;;;-2.00;99.90;;;;;;5038033;28;20033;-76
2022/04/04 05:04:33;;;;;;;11.38;10.23;;;-2.00;99.90;;;;;;5032590;28;20515;-74
2022/04/04 05:06:58;;;;;;;12.20;10.90;;;-2.20;99.90;;;;;;5022929;28;20090;-75
2022/04/04 05:09:24;;;;;;;14.88;12.27;;;-2.20;99.90;;;;;;5018138;28;20036;-74
2022/04/04 05:11:49;;;;;;;14.80;12.10;;;-2.10;99.90;;;;;;5018608;28;20541;-75
2022/04/04 05:14:15;;;;;;;16.92;11.60;;;-2.20;99.90;;;;;;5010665;28;20073;-75
2022/04/04 05:16:45;;;;;;;14.32;12.82;;;-2.10;99.90;;;;;;5025596;28;20075;-75
2022/04/04 05:19:12;;;;;;;15.52;12.73;;;-2.10;99.90;;;;;;5004476;28;20032;-73
2022/04/04 05:21:38;;;;;;;13.43;12.02;;;-2.10;99.90;;;;;;5034347;28;20403;-72
2022/04/04 05:24:05;;;;;;;15.40;13.13;;;-2.20;99.90;;;;;;5034654;28;20029;-73
2022/04/04 05:26:31;;;;;;;14.68;11.75;;;-2.20;99.90;;;;;;5003775;28;20053;-73
2022/04/04 05:28:57;;;;;;;16.90;14.13;;;-2.30;99.90;;;;;;5026327;28;20383;-73
2022/04/04 05:31:23;;;;;;;15.48;13.80;;;-2.10;99.90;;;;;;5010256;28;20032;-75
2022/04/04 05:33:49;;;;;;;14.35;12.75;;;-2.10;99.90;;;;;;5005574;28;20121;-75
2022/04/04 05:36:15;;;;;;;12.85;11.27;;;-2.20;99.90;;;;;;5021269;28;20053;-74
2022/04/04 05:38:40;;;;;;;14.13;11.73;;;-2.10;99.90;;;;;;5008221;28;20025;-76
2022/04/04 05:41:06;;;;;;;13.82;12.00;;;-2.00;99.90;;;;;;5029527;28;20029;-75
2022/04/04 05:43:31;;;;;;;14.40;10.55;;;-1.90;99.90;;;;;;5026251;28;20388;-75
2022/04/04 05:45:57;;;;;;;14.80;12.18;;;-1.90;99.90;;;;;;5009889;28;20030;-75
2022/04/04 05:48:25;;;;;;;13.00;11.77;;;-1.90;99.90;;;;;;5004979;28;20032;-76
2022/04/04 05:50:51;;;;;;;15.20;12.52;;;-1.70;99.90;;;;;;5020647;28;20072;-75
2022/04/04 05:53:16;;;;;;;13.45;10.90;;;-1.60;99.90;;;;;;5031745;28;20025;-76
2022/04/04 05:55:42;;;;;;;16.85;11.85;;;-1.50;99.90;;;;;;5031578;28;20037;-76
2022/04/04 05:58:07;;;;;;;14.25;12.32;;;-1.60;99.90;;;;;;5029994;28;20487;-76
2022/04/04 06:00:33;;;;;;;15.10;13.50;;;-1.70;99.90;;;;;;5020272;28;20037;-76
2022/04/04 06:02:58;;;;;;;13.70;12.23;;;-1.60;99.90;;;;;;5007843;28;20029;-77
2022/04/04 06:05:24;;;;;;;16.10;12.73;;;-1.40;99.90;;;;;;5015777;28;20068;-76
2022/04/04 06:07:49;;;;;;;13.18;11.88;;;-1.30;99.90;;;;;;5011764;28;20025;-76
2022/04/04 06:10:16;;;;;;;13.65;11.57;;;-1.20;99.90;;;;;;5018473;28;20029;-76
2022/04/04 06:12:43;;;;;;;12.98;11.73;;;-1.10;99.90;;;;;;5026928;28;20025;-76
2022/04/04 06:15:10;;;;;;;12.85;11.50;;;-1.10;99.90;;;;;;5033555;28;20075;-76
2022/04/04 06:17:36;;;;;;;14.85;11.88;;;-0.90;99.90;;;;;;5011733;28;20030;-73
2022/04/04 06:20:03;;;;;;;15.23;12.70;;;-0.90;99.90;;;;;;5033438;28;20032;-74
2022/04/04 06:22:34;;;;;;;15.43;12.32;;;-0.90;99.90;;;;;;5033198;28;20044;-74
2022/04/04 06:25:00;;;;;;;14.93;12.77;;;-0.90;99.90;;;;;;5030680;28;20438;-74
2022/04/04 06:27:25;;;;;;;13.82;12.38;;;-0.80;99.90;;;;;;5026745;28;20029;-73
2022/04/04 06:29:51;;;;;;;14.38;12.88;;;-0.80;99.90;;;;;;5013152;28;20053;-73
2022/04/04 06:32:16;;;;;;;14.77;12.52;;;-0.90;99.90;;;;;;5022299;28;20049;-74
2022/04/04 06:34:42;;;;;;;14.10;12.48;;;-0.90;99.90;;;;;;5002223;28;20080;-73
2022/04/04 06:37:10;;;;;;;12.70;11.45;;;-0.90;99.90;;;;;;5024316;28;20018;-75
2022/04/04 06:39:35;;;;;;;12.98;11.68;;;-0.90;99.90;;;;;;5008847;28;20112;-74
2022/04/04 06:42:02;;;;;;;15.93;12.57;;;-0.90;99.90;;;;;;5004645;28;20116;-76
2022/04/04 06:44:28;;;;;;;13.90;12.13;;;-0.70;99.90;;;;;;5018277;28;20025;-77
2022/04/04 06:46:53;;;;;;;14.35;12.32;;;-0.70;99.90;;;;;;5024134;28;20438;-75
2022/04/04 06:49:19;;;;;;;15.63;12.93;;;-0.60;99.90;;;;;;5016335;28;20026;-75
2022/04/04 06:51:45;;;;;;;14.57;12.77;;;-0.50;99.90;;;;;;5005382;28;20037;-75
2022/04/04 06:54:11;;;;;;;15.88;12.25;;;-0.30;99.90;;;;;;5002304;28;20025;-75
2022/04/04 06:56:36;;;;;;;15.00;12.68;;;-0.30;99.90;;;;;;5023540;28;20050;-76
2022/04/04 06:59:02;;;;;;;15.75;12.85;;;-0.20;99.90;;;;;;5024912;28;20039;-75
2022/04/04 07:01:29;;;;;;;14.27;12.77;;;-0.20;99.90;;;;;;5011328;28;20040;-74
2022/04/04 07:03:55;;;;;;;14.52;12.63;;;-0.10;99.90;;;;;;5029936;28;20053;-73
2022/04/04 07:06:21;;;;;;;17.02;14.98;;;-0.10;99.90;;;;;;5037501;28;20018;-73
2022/04/04 07:08:46;;;;;;;19.05;16.13;;;-0.20;99.90;;;;;;5031924;28;20141;-74
2022/04/04 07:11:13;;;;;;;19.00;16.33;;;-0.30;99.90;;;;;;5024868;28;20093;-73
2022/04/04 07:13:39;;;;;;;25.50;20.17;;;-0.10;99.90;;;;;;5008575;28;20626;-74
2022/04/04 07:16:05;;;;;;;20.40;17.58;;;0.00;99.90;;;;;;5022310;28;20396;-73
2022/04/04 07:18:30;;;;;;;32.25;27.23;;;0.20;99.90;;;;;;5001292;28;20041;-73
2022/04/04 07:20:56;;;;;;;20.80;16.88;;;0.30;99.90;;;;;;5014140;28;20044;-74
2022/04/04 07:23:22;;;;;;;16.90;14.57;;;0.50;99.90;;;;;;5000399;28;20026;-74
2022/04/04 07:25:48;;;;;;;17.90;15.10;;;0.60;99.90;;;;;;5003937;28;20021;-74
2022/04/04 07:28:14;;;;;;;15.60;14.00;;;0.90;99.90;;;;;;5020133;28;20479;-74
2022/04/04 07:30:40;;;;;;;15.73;13.73;;;1.00;99.90;;;;;;5022843;28;20475;-74
2022/04/04 07:33:08;;;;;;;15.38;13.80;;;1.10;99.90;;;;;;5012404;28;20037;-73
2022/04/04 07:35:34;;;;;;;17.70;14.85;;;1.10;99.90;;;;;;5015191;28;20128;-76
2022/04/04 07:37:59;;;;;;;15.85;14.27;;;1.10;99.90;;;;;;5030462;28;20097;-75
2022/04/04 07:40:26;;;;;;;18.27;14.70;;;1.30;99.90;;;;;;5021912;28;20025;-74
2022/04/04 07:42:52;;;;;;;15.90;13.55;;;1.60;99.90;;;;;;5001253;28;20052;-73
2022/04/04 07:45:18;;;;;;;16.55;14.77;;;1.80;99.90;;;;;;5005020;28;20049;-74
2022/04/04 07:47:45;;;;;;;15.43;13.75;;;1.90;99.90;;;;;;5028667;28;20022;-74
2022/04/04 07:50:13;;;;;;;16.05;14.48;;;2.10;99.90;;;;;;5022140;28;20415;-76
2022/04/04 07:52:40;;;;;;;16.88;15.07;;;2.30;99.90;;;;;;5025513;28;20014;-72
2022/04/04 07:55:06;;;;;;;17.58;15.52;;;2.20;99.90;;;;;;5022657;28;20112;-73
2022/04/04 07:57:31;;;;;;;18.90;16.90;;;2.30;99.90;;;;;;5028034;28;20656;-74
2022/04/04 07:59:57;;;;;;;17.45;15.65;;;2.30;99.90;;;;;;5022468;28;20029;-73
2022/04/04 08:02:23;;;;;;;17.48;15.65;;;2.40;99.90;;;;;;5018686;28;20033;-73
2022/04/04 08:04:48;;;;;;;17.88;15.50;;;2.40;99.90;;;;;;5004429;28;20032;-74
2022/04/04 08:07:15;;;;;;;17.38;15.48;;;2.40;99.90;;;;;;5025680;28;20022;-74
2022/04/04 08:09:40;;;;;;;16.48;14.88;;;2.20;99.90;;;;;;5021896;28;20526;-74
2022/04/04 08:12:06;;;;;;;16.23;14.57;;;2.50;99.90;;;;;;5018252;28;20033;-74
2022/04/04 08:14:32;;;;;;;16.52;14.68;;;2.70;99.90;;;;;;5021978;28;20088;-74
2022/04/04 08:16:57;;;;;;;16.95;15.35;;;2.80;99.90;;;;;;5007245;28;20480;-74
2022/04/04 08:19:23;;;;;;;17.95;16.23;;;2.90;99.90;;;;;;5021719;28;20041;-74
2022/04/04 08:21:49;;;;;;;17.85;16.05;;;2.90;99.90;;;;;;5018128;28;20033;-75
2022/04/04 08:24:15;;;;;;;18.02;16.13;;;3.10;99.90;;;;;;5030899;28;20025;-73
2022/04/04 08:26:42;;;;;;;18.45;16.58;;;3.20;99.90;;;;;;5038380;28;20089;-75
2022/04/04 08:29:09;;;;;;;18.30;16.42;;;3.30;99.90;;;;;;5021536;28;20028;-74
2022/04/04 08:31:35;;;;;;;19.30;17.23;;;3.10;99.90;;;;;;5007136;28;20026;-74
2022/04/04 08:34:01;;;;;;;18.17;15.80;;;3.50;99.90;;;;;;5022224;28;20052;-74
2022/04/04 08:36:27;;;;;;;17.67;15.88;;;3.50;99.90;;;;;;5018212;28;20049;-74
2022/04/04 08:38:52;;;;;;;18.05;16.15;;;3.70;99.90;;;;;;5003867;28;20068;-74
2022/04/04 08:41:19;;;;;;;17.30;15.65;;;3.60;99.90;;;;;;5007160;28;20022;-74
2022/04/04 08:43:49;;;;;;;17.27;15.48;;;3.70;99.90;;;;;;4993861;28;20480;-74
2022/04/04 08:46:15;;;;;;;15.73;14.23;;;3.90;99.90;;;;;;5024874;28;20022;-74
2022/04/04 08:48:41;;;;;;;15.80;14.18;;;3.90;99.90;;;;;;5004301;28;20104;-74
2022/04/04 08:51:07;;;;;;;14.43;13.02;;;3.90;99.90;;;;;;5013359;28;20052;-77
2022/04/04 08:53:38;;;;;;;15.02;13.50;;;3.60;99.90;;;;;;5013409;28;20112;-74
2022/04/04 08:56:06;;;;;;;13.02;11.73;;;3.80;99.90;;;;;;5026685;28;20060;-74
2022/04/04 08:58:32;;;;;;;13.07;11.65;;;3.90;99.90;;;;;;4993957;28;20026;-74
2022/04/04 09:00:59;;;;;;;12.48;11.20;;;3.80;99.90;;;;;;5024414;28;20033;-74
2022/04/04 09:03:32;;;;;;;12.00;10.82;;;3.90;99.90;;;;;;5023047;28;20087;-73
2022/04/04 09:05:59;;;;;;;11.88;10.68;;;3.90;99.90;;;;;;5017817;28;20021;-72
2022/04/04 09:08:28;;;;;;;10.50;9.43;;;4.30;99.90;;;;;;5031332;28;20021;-73
2022/04/04 09:10:56;;;;;;;11.48;10.32;;;4.20;99.90;;;;;;5017814;28;20099;-73
2022/04/04 09:13:25;;;;;;;11.05;9.80;;;4.20;99.90;;;;;;5020582;28;20033;-73
2022/04/04 09:15:57;;;;;;;11.75;9.75;;;4.30;99.90;;;;;;5010082;28;20022;-73
2022/04/04 09:18:39;;;;;;;9.30;8.40;;;4.20;99.90;;;;;;5029830;28;20071;-75
2022/04/04 09:21:07;;;;;;;10.23;9.13;;;4.40;99.90;;;;;;5025711;28;20025;-75
2022/04/04 09:23:50;;;;;;;10.38;9.38;;;4.70;99.90;;;;;;5014696;28;20031;-75
2022/04/04 09:26:28;;;;;;;9.88;8.25;;;5.10;99.90;;;;;;5004207;28;20030;-76
2022/04/04 09:28:54;;;;;;;8.85;7.75;;;5.00;99.90;;;;;;5022830;28;20020;-76
2022/04/04 09:31:20;;;;;;;10.05;7.55;;;4.80;99.90;;;;;;5003485;28;20026;-76
2022/04/04 09:33:46;;;;;;;9.18;8.13;;;4.90;99.90;;;;;;5033274;28;20026;-76
2022/04/04 09:36:11;;;;;;;9.43;7.22;;;5.10;99.90;;;;;;5013206;28;20391;-76
2022/04/04 09:38:37;;;;;;;7.88;7.18;;;5.30;99.90;;;;;;5008632;28;20029;-76
2022/04/04 09:41:24;;;;;;;8.38;7.15;;;5.00;99.90;;;;;;5022045;28;20028;-75
2022/04/04 09:43:54;;;;;;;8.18;7.20;;;4.80;99.90;;;;;;5007455;28;20022;-73
2022/04/04 09:46:21;;;;;;;9.00;7.13;;;4.50;99.90;;;;;;5023934;28;20077;-72
2022/04/04 09:49:13;;;;;;;7.65;6.78;;;4.60;99.90;;;;;;5025529;28;20573;-72
2022/04/04 09:51:44;;;;;;;7.82;7.03;;;4.90;99.90;;;;;;5018668;28;20037;-72
2022/04/04 09:54:18;;;;;;;7.60;6.90;;;4.90;99.90;;;;;;5034437;28;20029;-75
2022/04/04 09:56:46;;;;;;;7.60;6.60;;;5.00;99.90;;;;;;5036466;28;20029;-75
2022/04/04 09:59:15;;;;;;;7.50;6.80;;;5.40;99.90;;;;;;5038738;28;20057;-73
2022/04/04 10:01:43;;;;;;;7.47;6.78;;;5.40;99.90;;;;;;5029356;28;20044;-75
2022/04/04 10:04:12;;;;;;;7.32;6.57;;;6.00;99.90;;;;;;5042057;28;20021;-75
2022/04/04 10:06:39;;;;;;;6.95;6.35;;;5.70;99.90;;;;;;5039067;28;20402;-73
2022/04/04 10:09:05;;;;;;;7.82;7.13;;;5.20;99.90;;;;;;5030528;28;20083;-73
2022/04/04 10:11:30;;;;;;;8.15;7.35;;;5.20;99.90;;;;;;5029855;28;20390;-74
2022/04/04 10:13:57;;;;;;;7.50;6.72;;;5.10;99.90;;;;;;5025417;28;20072;-73
2022/04/04 10:16:23;;;;;;;7.28;6.57;;;5.10;99.90;;;;;;5027531;28;20140;-73
2022/04/04 10:18:50;;;;;;;8.45;7.35;;;5.50;99.90;;;;;;5037602;28;20151;-73
2022/04/04 10:21:16;;;;;;;8.40;6.53;;;6.00;99.90;;;;;;5033771;28;20048;-73
2022/04/04 10:23:46;;;;;;;7.57;6.22;;;5.70;99.90;;;;;;5030510;28;20021;-73
2022/04/04 10:26:14;;;;;;;8.40;6.90;;;5.60;99.90;;;;;;5014048;28;20139;-75
2022/04/04 10:28:41;;;;;;;7.82;6.18;;;5.10;99.90;;;;;;5022972;28;20014;-75
2022/04/04 10:31:21;;;;;;;7.03;6.43;;;5.50;99.90;;;;;;5010996;28;20183;-75
2022/04/04 10:33:50;;;;;;;7.28;6.57;;;5.80;99.90;;;;;;5027683;28;20114;-75
2022/04/04 10:36:23;;;;;;;7.70;6.43;;;5.40;99.90;;;;;;5037880;28;20032;-75
2022/04/04 10:38:51;;;;;;;8.13;6.88;;;5.50;99.90;;;;;;5042819;28;20075;-73
2022/04/04 10:41:20;;;;;;;6.95;6.25;;;5.80;99.90;;;;;;5040890;28;20041;-73
2022/04/04 10:43:50;;;;;;;6.57;5.90;;;6.30;99.90;;;;;;5043822;28;20028;-73
2022/04/04 10:46:18;;;;;;;7.25;6.55;;;6.10;99.90;;;;;;5015263;28;20032;-73
2022/04/04 10:49:00;;;;;;;7.40;6.38;;;5.90;99.90;;;;;;5041224;28;20028;-73
2022/04/04 10:51:26;;;;;;;6.65;6.05;;;5.50;99.90;;;;;;5033213;28;20022;-73
2022/04/04 10:53:53;;;;;;;6.93;6.22;;;5.70;99.90;;;;;;5010214;28;20021;-73
2022/04/04 10:56:29;;;;;;;7.13;6.25;;;5.80;99.90;;;;;;5022060;28;20028;-73
2022/04/04 10:59:20;;;;;;;6.35;5.70;;;5.70;99.90;;;;;;5026641;28;20022;-73
2022/04/04 11:01:51;;;;;;;6.18;5.57;;;5.70;99.90;;;;;;5010374;28;20034;-73
2022/04/04 11:04:27;;;;;;;6.63;5.57;;;5.90;99.90;;;;;;5010284;28;20039;-73
2022/04/04 11:10:05;;;;;;;6.80;6.10;;;5.30;99.90;;;;;;5026613;28;20024;-73
2022/04/04 11:12:55;;;;;;;7.10;6.45;;;5.50;99.90;;;;;;5043596;28;20021;-73
2022/04/04 11:15:43;;;;;;;6.90;6.30;;;5.70;99.90;;;;;;5031590;28;20021;-73
2022/04/04 11:18:12;;;;;;;6.70;6.10;;;5.60;99.90;;;;;;5032512;28;20056;-75
2022/04/04 11:20:47;;;;;;;8.80;6.28;;;5.90;99.90;;;;;;5027088;28;20032;-75
2022/04/04 11:23:13;;;;;;;6.90;6.18;;;6.80;99.90;;;;;;5009815;28;20450;-73
2022/04/04 11:25:52;;;;;;;6.68;6.07;;;7.00;99.90;;;;;;5026044;28;20526;-73
2022/04/04 11:28:20;;;;;;;6.95;5.95;;;6.40;99.90;;;;;;5024241;28;20079;-73
2022/04/04 11:30:46;;;;;;;6.07;5.47;;;6.20;99.90;;;;;;5031695;28;20025;-73
2022/04/04 11:33:21;;;;;;;6.45;5.85;;;5.80;99.90;;;;;;5009613;28;20029;-74
2022/04/04 11:35:48;;;;;;;6.03;5.53;;;5.50;99.90;;;;;;5032001;28;20395;-73
2022/04/04 11:38:17;;;;;;;6.00;5.32;;;5.60;99.90;;;;;;5030388;28;20052;-73
2022/04/04 11:40:45;;;;;;;6.13;5.53;;;5.70;99.90;;;;;;5032202;28;20613;-72
2022/04/04 11:43:16;;;;;;;7.05;6.35;;;6.40;99.90;;;;;;5021183;28;20025;-73
2022/04/04 11:45:43;;;;;;;6.65;5.95;;;6.40;99.90;;;;;;5039022;28;20017;-73
2022/04/04 11:48:16;;;;;;;6.20;5.53;;;6.10;99.90;;;;;;5042416;28;20479;-73
2022/04/04 11:50:42;;;;;;;6.72;6.05;;;5.80;99.90;;;;;;5042245;28;20020;-73
2022/04/04 11:53:14;;;;;;;6.47;5.65;;;5.90;99.90;;;;;;5029640;28;20025;-73
2022/04/04 11:55:42;;;;;;;6.63;5.85;;;6.40;99.90;;;;;;4999995;28;20041;-73
2022/04/04 11:58:12;;;;;;;7.28;6.57;;;7.20;99.90;;;;;;4994581;28;20025;-73
2022/04/04 12:00:40;;;;;;;7.07;6.43;;;7.30;99.90;;;;;;5007382;28;20508;-73
2022/04/04 12:03:11;;;;;;;7.18;6.47;;;6.80;99.90;;;;;;5020603;28;20040;-73
2022/04/04 12:05:42;;;;;;;7.20;6.50;;;6.70;99.90;;;;;;5016257;28;20029;-72
2022/04/04 12:08:09;;;;;;;7.53;6.20;;;6.80;99.90;;;;;;5021753;28;20021;-73
2022/04/04 12:10:37;;;;;;;6.95;6.30;;;6.60;99.90;;;;;;5028977;28;20039;-73
2022/04/04 12:13:08;;;;;;;7.30;6.57;;;6.60;99.90;;;;;;5021456;28;20029;-73
2022/04/04 12:15:37;;;;;;;7.43;6.72;;;6.90;99.90;;;;;;5018667;28;20032;-73
2022/04/04 12:18:04;;;;;;;6.97;6.28;;;6.70;99.90;;;;;;5021423;28;20103;-73
2022/04/04 12:20:44;;;;;;;6.30;5.43;;;6.50;99.90;;;;;;5024844;28;20030;-72
2022/04/04 12:26:01;;;;;;;6.13;5.50;;;7.50;99.80;;;;;;5021441;28;20088;-73
2022/04/04 12:28:29;;;;;;;6.35;5.80;;;6.90;99.60;;;;;;5025206;28;20410;-73
2022/04/04 12:30:55;;;;;;;7.43;5.97;;;7.70;99.60;;;;;;4994144;28;20026;-73
2022/04/04 12:33:29;;;;;;;6.20;5.70;;;7.40;98.80;;;;;;5025147;28;20050;-73
2022/04/04 12:35:55;;;;;;;6.55;5.95;;;7.50;98.80;;;;;;4994441;28;20072;-73
2022/04/04 12:38:55;;;;;;;7.93;6.43;;;7.90;99.90;;;;;;5024950;28;20022;-73
2022/04/04 12:41:20;;;;;;;7.30;6.60;;;7.60;99.40;;;;;;5010445;28;20045;-73
2022/04/04 12:43:57;;;;;;;7.00;6.38;;;7.60;98.80;;;;;;5021382;28;20417;-74
2022/04/04 12:46:27;;;;;;;6.70;6.10;;;7.50;99.30;;;;;;5013758;28;20080;-74
2022/04/04 12:48:54;;;;;;;6.57;5.90;;;7.60;99.30;;;;;;5023330;28;20021;-73
2022/04/04 12:51:30;;;;;;;7.32;6.40;;;7.30;98.80;;;;;;5010933;28;20026;-73